sensor_id;sensor_type;location;lat;lon;timestamp;P1;durP1;ratioP1;P2;durP2;ratioP2
71937;SDS011;59810;48.800;9.086;2023-07-13T00:02:00;5.10;;;1.00;;
71937;SDS011;59810;48.800;9.086;2023-07-13T00:04:25;3.57;;;0.97;;
71937;SDS011;59810;48.800;9.086;2023-07-13T00:06:51;2.83;;;0.82;;
71937;SDS011;59810;48.800;9.086;2023-07-13T00:09:17;3.10;;;1.05;;
71937;SDS011;59810;48.800;9.086;2023-07-13T00:11:44;5.23;;;1.10;;
71937;SDS011;59810;48.800;9.086;2023-07-13T00:14:12;2.38;;;0.75;;
71937;SDS011;59810;48.800;9.086;2023-07-13T00:16:39;3.72;;;0.90;;
71937;SDS011;59810;48.800;9.086;2023-07-13T00:19:09;4.93;;;0.93;;
71937;SDS011;59810;48.800;9.086;2023-07-13T00:21:36;4.55;;;1.00;;
71937;SDS011;59810;48.800;9.086;2023-07-13T00:24:05;3.10;;;0.73;;
71937;SDS011;59810;48.800;9.086;2023-07-13T00:26:31;3.15;;;0.85;;
71937;SDS011;59810;48.800;9.086;2023-07-13T00:28:57;4.18;;;1.27;;
71937;SDS011;59810;48.800;9.086;2023-07-13T00:31:25;4.65;;;1.00;;
71937;SDS011;59810;48.800;9.086;2023-07-13T00:33:50;4.30;;;1.10;;
71937;SDS011;59810;48.800;9.086;2023-07-13T00:36:16;2.50;;;0.90;;
71937;SDS011;59810;48.800;9.086;2023-07-13T00:38:42;4.28;;;1.10;;
71937;SDS011;59810;48.800;9.086;2023-07-13T00:41:08;4.55;;;1.20;;
71937;SDS011;59810;48.800;9.086;2023-07-13T00:43:34;2.83;;;1.02;;
71937;SDS011;59810;48.800;9.086;2023-07-13T00:46:09;3.55;;;0.90;;
71937;SDS011;59810;48.800;9.086;2023-07-13T00:48:38;2.50;;;1.00;;
71937;SDS011;59810;48.800;9.086;2023-07-13T00:51:04;2.33;;;0.90;;
71937;SDS011;59810;48.800;9.086;2023-07-13T00:53:31;4.72;;;1.30;;
71937;SDS011;59810;48.800;9.086;2023-07-13T00:56:02;2.67;;;0.98;;
71937;SDS011;59810;48.800;9.086;2023-07-13T00:58:28;4.40;;;1.00;;
71937;SDS011;59810;48.800;9.086;2023-07-13T01:00:54;3.40;;;1.08;;
71937;SDS011;59810;48.800;9.086;2023-07-13T01:03:19;3.10;;;1.00;;
71937;SDS011;59810;48.800;9.086;2023-07-13T01:05:46;4.20;;;1.10;;
71937;SDS011;59810;48.800;9.086;2023-07-13T01:08:13;4.78;;;1.20;;
71937;SDS011;59810;48.800;9.086;2023-07-13T01:10:41;5.82;;;0.80;;
71937;SDS011;59810;48.800;9.086;2023-07-13T01:13:15;5.63;;;1.00;;
71937;SDS011;59810;48.800;9.086;2023-07-13T01:15:42;7.87;;;1.53;;
71937;SDS011;59810;48.800;9.086;2023-07-13T01:18:13;4.00;;;1.10;;
71937;SDS011;59810;48.800;9.086;2023-07-13T01:20:46;5.10;;;1.20;;
71937;SDS011;59810;48.800;9.086;2023-07-13T01:23:15;5.45;;;1.00;;
71937;SDS011;59810;48.800;9.086;2023-07-13T01:25:41;7.20;;;1.17;;
71937;SDS011;59810;48.800;9.086;2023-07-13T01:28:06;3.93;;;1.00;;
71937;SDS011;59810;48.800;9.086;2023-07-13T01:30:36;4.05;;;0.95;;
71937;SDS011;59810;48.800;9.086;2023-07-13T01:33:03;4.65;;;1.30;;
71937;SDS011;59810;48.800;9.086;2023-07-13T01:35:32;5.00;;;0.85;;
71937;SDS011;59810;48.800;9.086;2023-07-13T01:37:57;3.20;;;0.97;;
71937;SDS011;59810;48.800;9.086;2023-07-13T01:40:23;6.63;;;1.80;;
71937;SDS011;59810;48.800;9.086;2023-07-13T01:42:51;4.15;;;0.90;;
71937;SDS011;59810;48.800;9.086;2023-07-13T01:45:16;2.67;;;0.80;;
71937;SDS011;59810;48.800;9.086;2023-07-13T01:47:41;4.60;;;1.03;;
71937;SDS011;59810;48.800;9.086;2023-07-13T01:50:07;4.43;;;1.10;;
71937;SDS011;59810;48.800;9.086;2023-07-13T01:52:33;3.17;;;1.00;;
71937;SDS011;59810;48.800;9.086;2023-07-13T01:54:58;3.53;;;1.10;;
71937;SDS011;59810;48.800;9.086;2023-07-13T01:57:23;2.57;;;0.83;;
71937;SDS011;59810;48.800;9.086;2023-07-13T01:59:49;3.17;;;1.00;;
71937;SDS011;59810;48.800;9.086;2023-07-13T02:02:14;2.93;;;0.90;;
71937;SDS011;59810;48.800;9.086;2023-07-13T02:04:39;5.77;;;1.20;;
71937;SDS011;59810;48.800;9.086;2023-07-13T02:07:05;3.20;;;0.90;;
71937;SDS011;59810;48.800;9.086;2023-07-13T02:09:30;3.13;;;0.70;;
71937;SDS011;59810;48.800;9.086;2023-07-13T02:11:56;3.40;;;1.00;;
71937;SDS011;59810;48.800;9.086;2023-07-13T02:14:21;3.83;;;1.00;;
71937;SDS011;59810;48.800;9.086;2023-07-13T02:16:47;2.87;;;0.90;;
71937;SDS011;59810;48.800;9.086;2023-07-13T02:19:13;5.70;;;1.00;;
71937;SDS011;59810;48.800;9.086;2023-07-13T02:21:39;4.53;;;1.00;;
71937;SDS011;59810;48.800;9.086;2023-07-13T02:24:04;2.77;;;1.10;;
71937;SDS011;59810;48.800;9.086;2023-07-13T02:26:29;3.80;;;0.90;;
71937;SDS011;59810;48.800;9.086;2023-07-13T02:28:55;4.63;;;1.10;;
71937;SDS011;59810;48.800;9.086;2023-07-13T02:31:25;4.28;;;0.80;;
71937;SDS011;59810;48.800;9.086;2023-07-13T02:33:52;6.10;;;1.20;;
71937;SDS011;59810;48.800;9.086;2023-07-13T02:36:18;6.60;;;1.20;;
71937;SDS011;59810;48.800;9.086;2023-07-13T02:38:43;3.10;;;0.90;;
71937;SDS011;59810;48.800;9.086;2023-07-13T02:41:09;3.03;;;1.20;;
71937;SDS011;59810;48.800;9.086;2023-07-13T02:43:37;3.92;;;1.23;;
71937;SDS011;59810;48.800;9.086;2023-07-13T02:46:03;5.00;;;1.23;;
71937;SDS011;59810;48.800;9.086;2023-07-13T02:48:35;3.85;;;1.27;;
71937;SDS011;59810;48.800;9.086;2023-07-13T02:51:02;4.85;;;1.20;;
71937;SDS011;59810;48.800;9.086;2023-07-13T02:53:27;5.50;;;0.93;;
71937;SDS011;59810;48.800;9.086;2023-07-13T02:55:53;5.60;;;1.17;;
71937;SDS011;59810;48.800;9.086;2023-07-13T02:58:21;3.63;;;1.08;;
71937;SDS011;59810;48.800;9.086;2023-07-13T03:00:49;5.18;;;1.02;;
71937;SDS011;59810;48.800;9.086;2023-07-13T03:03:15;3.22;;;1.10;;
71937;SDS011;59810;48.800;9.086;2023-07-13T03:05:42;3.23;;;0.87;;
71937;SDS011;59810;48.800;9.086;2023-07-13T03:08:15;4.65;;;1.00;;
71937;SDS011;59810;48.800;9.086;2023-07-13T03:10:41;3.17;;;0.90;;
71937;SDS011;59810;48.800;9.086;2023-07-13T03:13:07;4.38;;;1.30;;
71937;SDS011;59810;48.800;9.086;2023-07-13T03:15:32;5.73;;;1.17;;
71937;SDS011;59810;48.800;9.086;2023-07-13T03:17:58;6.13;;;1.10;;
71937;SDS011;59810;48.800;9.086;2023-07-13T03:20:25;3.55;;;1.30;;
71937;SDS011;59810;48.800;9.086;2023-07-13T03:22:51;5.33;;;1.30;;
71937;SDS011;59810;48.800;9.086;2023-07-13T03:25:16;4.80;;;1.13;;
71937;SDS011;59810;48.800;9.086;2023-07-13T03:27:42;3.73;;;1.13;;
71937;SDS011;59810;48.800;9.086;2023-07-13T03:30:07;5.27;;;1.20;;
71937;SDS011;59810;48.800;9.086;2023-07-13T03:32:33;3.28;;;0.95;;
71937;SDS011;59810;48.800;9.086;2023-07-13T03:34:58;4.80;;;1.03;;
71937;SDS011;59810;48.800;9.086;2023-07-13T03:37:24;4.03;;;1.00;;
71937;SDS011;59810;48.800;9.086;2023-07-13T03:39:50;3.92;;;1.02;;
71937;SDS011;59810;48.800;9.086;2023-07-13T03:42:15;5.23;;;1.13;;
71937;SDS011;59810;48.800;9.086;2023-07-13T03:44:41;6.17;;;1.10;;
71937;SDS011;59810;48.800;9.086;2023-07-13T03:47:07;4.25;;;1.05;;
71937;SDS011;59810;48.800;9.086;2023-07-13T03:49:34;4.40;;;1.00;;
71937;SDS011;59810;48.800;9.086;2023-07-13T03:52:00;3.97;;;0.90;;
71937;SDS011;59810;48.800;9.086;2023-07-13T03:54:25;6.28;;;1.20;;
71937;SDS011;59810;48.800;9.086;2023-07-13T03:56:51;3.57;;;1.00;;
71937;SDS011;59810;48.800;9.086;2023-07-13T03:59:16;4.63;;;0.90;;
71937;SDS011;59810;48.800;9.086;2023-07-13T04:01:43;3.20;;;1.00;;
71937;SDS011;59810;48.800;9.086;2023-07-13T04:04:08;3.75;;;1.05;;
71937;SDS011;59810;48.800;9.086;2023-07-13T04:06:34;4.90;;;1.10;;
71937;SDS011;59810;48.800;9.086;2023-07-13T04:09:02;2.60;;;0.80;;
71937;SDS011;59810;48.800;9.086;2023-07-13T04:11:34;4.50;;;1.08;;
71937;SDS011;59810;48.800;9.086;2023-07-13T04:14:01;5.25;;;1.40;;
71937;SDS011;59810;48.800;9.086;2023-07-13T04:16:27;4.47;;;1.20;;
71937;SDS011;59810;48.800;9.086;2023-07-13T04:18:55;5.07;;;1.13;;
71937;SDS011;59810;48.800;9.086;2023-07-13T04:21:24;4.57;;;1.10;;
71937;SDS011;59810;48.800;9.086;2023-07-13T04:23:53;3.88;;;1.02;;
71937;SDS011;59810;48.800;9.086;2023-07-13T04:26:19;5.20;;;1.10;;
71937;SDS011;59810;48.800;9.086;2023-07-13T04:28:47;5.30;;;1.00;;
71937;SDS011;59810;48.800;9.086;2023-07-13T04:31:13;3.53;;;1.00;;
71937;SDS011;59810;48.800;9.086;2023-07-13T04:33:39;3.75;;;1.30;;
71937;SDS011;59810;48.800;9.086;2023-07-13T04:36:04;3.97;;;1.17;;
71937;SDS011;59810;48.800;9.086;2023-07-13T04:38:32;3.73;;;1.10;;
71937;SDS011;59810;48.800;9.086;2023-07-13T04:41:01;5.72;;;1.20;;
71937;SDS011;59810;48.800;9.086;2023-07-13T04:43:28;5.13;;;1.40;;
71937;SDS011;59810;48.800;9.086;2023-07-13T04:45:54;3.50;;;1.10;;
71937;SDS011;59810;48.800;9.086;2023-07-13T04:48:20;4.57;;;1.27;;
71937;SDS011;59810;48.800;9.086;2023-07-13T04:50:46;6.03;;;1.50;;
71937;SDS011;59810;48.800;9.086;2023-07-13T04:53:12;5.88;;;1.23;;
71937;SDS011;59810;48.800;9.086;2023-07-13T04:55:37;5.57;;;1.40;;
71937;SDS011;59810;48.800;9.086;2023-07-13T04:58:03;3.30;;;1.10;;
71937;SDS011;59810;48.800;9.086;2023-07-13T05:00:29;5.07;;;1.30;;
71937;SDS011;59810;48.800;9.086;2023-07-13T05:02:56;4.47;;;1.23;;
71937;SDS011;59810;48.800;9.086;2023-07-13T05:05:23;4.97;;;1.30;;
71937;SDS011;59810;48.800;9.086;2023-07-13T05:07:51;4.97;;;1.30;;
71937;SDS011;59810;48.800;9.086;2023-07-13T05:10:17;7.07;;;1.65;;
71937;SDS011;59810;48.800;9.086;2023-07-13T05:12:43;3.97;;;1.03;;
71937;SDS011;59810;48.800;9.086;2023-07-13T05:15:09;4.20;;;1.20;;
71937;SDS011;59810;48.800;9.086;2023-07-13T05:17:37;2.78;;;1.20;;
71937;SDS011;59810;48.800;9.086;2023-07-13T05:20:04;4.37;;;1.27;;
71937;SDS011;59810;48.800;9.086;2023-07-13T05:22:42;3.13;;;1.10;;
71937;SDS011;59810;48.800;9.086;2023-07-13T05:25:11;4.03;;;1.20;;
71937;SDS011;59810;48.800;9.086;2023-07-13T05:27:38;4.80;;;1.13;;
71937;SDS011;59810;48.800;9.086;2023-07-13T05:30:04;4.67;;;1.30;;
71937;SDS011;59810;48.800;9.086;2023-07-13T05:32:30;3.72;;;1.35;;
71937;SDS011;59810;48.800;9.086;2023-07-13T05:34:55;6.13;;;1.43;;
71937;SDS011;59810;48.800;9.086;2023-07-13T05:37:20;4.32;;;1.15;;
71937;SDS011;59810;48.800;9.086;2023-07-13T05:39:48;4.40;;;1.10;;
71937;SDS011;59810;48.800;9.086;2023-07-13T05:42:14;4.43;;;1.35;;
71937;SDS011;59810;48.800;9.086;2023-07-13T05:44:39;4.73;;;1.40;;
71937;SDS011;59810;48.800;9.086;2023-07-13T05:47:05;6.25;;;1.50;;
71937;SDS011;59810;48.800;9.086;2023-07-13T05:49:31;5.67;;;1.47;;
71937;SDS011;59810;48.800;9.086;2023-07-13T05:51:56;4.90;;;1.30;;
71937;SDS011;59810;48.800;9.086;2023-07-13T05:54:24;4.82;;;1.48;;
71937;SDS011;59810;48.800;9.086;2023-07-13T05:56:50;6.03;;;1.20;;
71937;SDS011;59810;48.800;9.086;2023-07-13T05:59:15;5.90;;;1.45;;
71937;SDS011;59810;48.800;9.086;2023-07-13T06:01:41;3.40;;;1.33;;
71937;SDS011;59810;48.800;9.086;2023-07-13T06:04:06;4.67;;;1.37;;
71937;SDS011;59810;48.800;9.086;2023-07-13T06:06:32;4.78;;;1.40;;
71937;SDS011;59810;48.800;9.086;2023-07-13T06:08:57;6.53;;;1.40;;
71937;SDS011;59810;48.800;9.086;2023-07-13T06:11:24;5.00;;;1.20;;
71937;SDS011;59810;48.800;9.086;2023-07-13T06:13:51;4.45;;;1.60;;
71937;SDS011;59810;48.800;9.086;2023-07-13T06:16:16;3.80;;;1.40;;
71937;SDS011;59810;48.800;9.086;2023-07-13T06:18:42;5.18;;;1.83;;
71937;SDS011;59810;48.800;9.086;2023-07-13T06:21:15;5.22;;;1.70;;
71937;SDS011;59810;48.800;9.086;2023-07-13T06:23:43;4.07;;;1.30;;
71937;SDS011;59810;48.800;9.086;2023-07-13T06:26:09;4.15;;;1.33;;
71937;SDS011;59810;48.800;9.086;2023-07-13T06:28:35;4.05;;;1.23;;
71937;SDS011;59810;48.800;9.086;2023-07-13T06:31:05;3.95;;;1.30;;
71937;SDS011;59810;48.800;9.086;2023-07-13T06:33:33;5.55;;;1.40;;
71937;SDS011;59810;48.800;9.086;2023-07-13T06:35:58;3.47;;;1.23;;
71937;SDS011;59810;48.800;9.086;2023-07-13T06:38:24;7.17;;;1.40;;
71937;SDS011;59810;48.800;9.086;2023-07-13T06:40:49;5.23;;;1.50;;
71937;SDS011;59810;48.800;9.086;2023-07-13T06:43:14;4.93;;;1.25;;
71937;SDS011;59810;48.800;9.086;2023-07-13T06:45:42;4.30;;;1.20;;
71937;SDS011;59810;48.800;9.086;2023-07-13T06:48:11;3.67;;;1.42;;
71937;SDS011;59810;48.800;9.086;2023-07-13T06:50:38;3.47;;;1.10;;
71937;SDS011;59810;48.800;9.086;2023-07-13T06:53:04;3.92;;;1.17;;
71937;SDS011;59810;48.800;9.086;2023-07-13T06:55:29;4.03;;;1.23;;
71937;SDS011;59810;48.800;9.086;2023-07-13T06:57:54;4.80;;;1.17;;
71937;SDS011;59810;48.800;9.086;2023-07-13T07:00:20;4.43;;;1.50;;
71937;SDS011;59810;48.800;9.086;2023-07-13T07:02:45;5.03;;;1.30;;
71937;SDS011;59810;48.800;9.086;2023-07-13T07:05:11;4.20;;;1.37;;
71937;SDS011;59810;48.800;9.086;2023-07-13T07:07:36;4.60;;;1.10;;
71937;SDS011;59810;48.800;9.086;2023-07-13T07:10:01;7.63;;;1.70;;
71937;SDS011;59810;48.800;9.086;2023-07-13T07:12:30;4.03;;;1.17;;
71937;SDS011;59810;48.800;9.086;2023-07-13T07:14:55;3.53;;;1.40;;
71937;SDS011;59810;48.800;9.086;2023-07-13T07:17:21;4.10;;;1.03;;
71937;SDS011;59810;48.800;9.086;2023-07-13T07:19:46;3.40;;;1.00;;
71937;SDS011;59810;48.800;9.086;2023-07-13T07:22:11;3.83;;;1.00;;
71937;SDS011;59810;48.800;9.086;2023-07-13T07:24:37;3.60;;;0.90;;
71937;SDS011;59810;48.800;9.086;2023-07-13T07:27:02;2.83;;;1.20;;
71937;SDS011;59810;48.800;9.086;2023-07-13T07:29:28;2.80;;;1.10;;
71937;SDS011;59810;48.800;9.086;2023-07-13T07:31:53;5.75;;;1.33;;
71937;SDS011;59810;48.800;9.086;2023-07-13T07:34:19;5.73;;;1.03;;
71937;SDS011;59810;48.800;9.086;2023-07-13T07:36:44;3.87;;;1.17;;
71937;SDS011;59810;48.800;9.086;2023-07-13T07:39:10;5.60;;;1.40;;
71937;SDS011;59810;48.800;9.086;2023-07-13T07:41:36;5.17;;;0.97;;
71937;SDS011;59810;48.800;9.086;2023-07-13T07:44:02;3.00;;;1.10;;
71937;SDS011;59810;48.800;9.086;2023-07-13T07:46:31;4.28;;;1.33;;
71937;SDS011;59810;48.800;9.086;2023-07-13T07:48:57;9.50;;;1.30;;
71937;SDS011;59810;48.800;9.086;2023-07-13T07:51:22;4.43;;;1.07;;
71937;SDS011;59810;48.800;9.086;2023-07-13T07:53:47;4.17;;;1.30;;
71937;SDS011;59810;48.800;9.086;2023-07-13T07:56:13;5.10;;;1.37;;
71937;SDS011;59810;48.800;9.086;2023-07-13T07:58:41;5.13;;;1.40;;
71937;SDS011;59810;48.800;9.086;2023-07-13T08:01:07;5.80;;;1.30;;
71937;SDS011;59810;48.800;9.086;2023-07-13T08:03:35;5.10;;;1.40;;
71937;SDS011;59810;48.800;9.086;2023-07-13T08:06:00;4.53;;;1.00;;
71937;SDS011;59810;48.800;9.086;2023-07-13T08:08:25;6.60;;;1.00;;
71937;SDS011;59810;48.800;9.086;2023-07-13T08:10:51;6.77;;;1.83;;
71937;SDS011;59810;48.800;9.086;2023-07-13T08:13:17;3.80;;;1.08;;
71937;SDS011;59810;48.800;9.086;2023-07-13T08:15:43;7.13;;;1.43;;
71937;SDS011;59810;48.800;9.086;2023-07-13T08:18:08;4.40;;;1.10;;
71937;SDS011;59810;48.800;9.086;2023-07-13T08:20:36;8.05;;;1.40;;
71937;SDS011;59810;48.800;9.086;2023-07-13T08:23:04;4.68;;;1.38;;
71937;SDS011;59810;48.800;9.086;2023-07-13T08:25:32;6.97;;;1.35;;
71937;SDS011;59810;48.800;9.086;2023-07-13T08:27:58;4.73;;;1.40;;
71937;SDS011;59810;48.800;9.086;2023-07-13T08:30:23;6.57;;;1.40;;
71937;SDS011;59810;48.800;9.086;2023-07-13T08:32:48;6.97;;;1.40;;
71937;SDS011;59810;48.800;9.086;2023-07-13T08:35:14;6.43;;;1.30;;
71937;SDS011;59810;48.800;9.086;2023-07-13T08:37:41;5.97;;;1.23;;
71937;SDS011;59810;48.800;9.086;2023-07-13T08:40:07;7.55;;;1.40;;
71937;SDS011;59810;48.800;9.086;2023-07-13T08:42:50;5.85;;;1.27;;
71937;SDS011;59810;48.800;9.086;2023-07-13T08:45:22;6.90;;;1.10;;
71937;SDS011;59810;48.800;9.086;2023-07-13T08:50:40;7.32;;;1.73;;
71937;SDS011;59810;48.800;9.086;2023-07-13T08:53:24;4.20;;;1.33;;
71937;SDS011;59810;48.800;9.086;2023-07-13T08:55:55;3.45;;;1.00;;
71937;SDS011;59810;48.800;9.086;2023-07-13T08:58:23;6.13;;;1.40;;
71937;SDS011;59810;48.800;9.086;2023-07-13T09:06:31;6.85;;;1.40;;
71937;SDS011;59810;48.800;9.086;2023-07-13T09:09:52;9.35;;;1.83;;
71937;SDS011;59810;48.800;9.086;2023-07-13T09:12:17;5.87;;;1.10;;
71937;SDS011;59810;48.800;9.086;2023-07-13T09:14:51;7.88;;;1.33;;
71937;SDS011;59810;48.800;9.086;2023-07-13T09:17:33;5.57;;;1.40;;
71937;SDS011;59810;48.800;9.086;2023-07-13T09:22:40;4.00;;;1.38;;
71937;SDS011;59810;48.800;9.086;2023-07-13T09:27:39;3.17;;;1.15;;
71937;SDS011;59810;48.800;9.086;2023-07-13T09:32:39;3.15;;;1.13;;
71937;SDS011;59810;48.800;9.086;2023-07-13T09:35:11;4.80;;;1.10;;
71937;SDS011;59810;48.800;9.086;2023-07-13T09:37:39;2.37;;;0.80;;
71937;SDS011;59810;48.800;9.086;2023-07-13T09:40:08;7.35;;;1.20;;
71937;SDS011;59810;48.800;9.086;2023-07-13T09:42:42;6.57;;;1.40;;
71937;SDS011;59810;48.800;9.086;2023-07-13T09:45:08;4.47;;;1.15;;
71937;SDS011;59810;48.800;9.086;2023-07-13T09:47:38;4.73;;;1.30;;
71937;SDS011;59810;48.800;9.086;2023-07-13T09:50:15;5.22;;;1.50;;
71937;SDS011;59810;48.800;9.086;2023-07-13T10:00:36;5.22;;;1.48;;
71937;SDS011;59810;48.800;9.086;2023-07-13T10:03:09;6.80;;;1.52;;
71937;SDS011;59810;48.800;9.086;2023-07-13T10:05:43;5.90;;;1.90;;
71937;SDS011;59810;48.800;9.086;2023-07-13T10:08:26;5.75;;;1.50;;
71937;SDS011;59810;48.800;9.086;2023-07-13T10:10:59;3.10;;;1.30;;
71937;SDS011;59810;48.800;9.086;2023-07-13T10:13:26;3.08;;;1.17;;
71937;SDS011;59810;48.800;9.086;2023-07-13T10:15:55;4.32;;;1.30;;
71937;SDS011;59810;48.800;9.086;2023-07-13T10:18:21;3.77;;;1.07;;
71937;SDS011;59810;48.800;9.086;2023-07-13T10:20:53;7.05;;;1.40;;
71937;SDS011;59810;48.800;9.086;2023-07-13T10:23:27;5.25;;;1.30;;
71937;SDS011;59810;48.800;9.086;2023-07-13T10:25:57;4.47;;;1.20;;
71937;SDS011;59810;48.800;9.086;2023-07-13T10:28:29;3.33;;;1.27;;
71937;SDS011;59810;48.800;9.086;2023-07-13T10:30:58;5.37;;;1.50;;
71937;SDS011;59810;48.800;9.086;2023-07-13T10:33:25;4.10;;;1.30;;
71937;SDS011;59810;48.800;9.086;2023-07-13T10:35:54;3.80;;;1.70;;
71937;SDS011;59810;48.800;9.086;2023-07-13T10:38:29;5.35;;;1.35;;
71937;SDS011;59810;48.800;9.086;2023-07-13T10:41:02;4.47;;;1.25;;
71937;SDS011;59810;48.800;9.086;2023-07-13T10:43:43;4.47;;;1.50;;
71937;SDS011;59810;48.800;9.086;2023-07-13T10:46:12;3.88;;;1.45;;
71937;SDS011;59810;48.800;9.086;2023-07-13T10:48:41;5.25;;;1.30;;
71937;SDS011;59810;48.800;9.086;2023-07-13T10:51:10;4.43;;;1.40;;
71937;SDS011;59810;48.800;9.086;2023-07-13T10:53:40;5.07;;;1.33;;
71937;SDS011;59810;48.800;9.086;2023-07-13T10:56:27;3.67;;;1.30;;
71937;SDS011;59810;48.800;9.086;2023-07-13T10:59:27;3.40;;;1.20;;
71937;SDS011;59810;48.800;9.086;2023-07-13T11:04:42;2.88;;;1.08;;
71937;SDS011;59810;48.800;9.086;2023-07-13T11:07:16;3.72;;;1.23;;
71937;SDS011;59810;48.800;9.086;2023-07-13T11:09:49;5.30;;;1.38;;
71937;SDS011;59810;48.800;9.086;2023-07-13T11:15:06;4.80;;;1.35;;
71937;SDS011;59810;48.800;9.086;2023-07-13T11:22:43;6.05;;;1.45;;
71937;SDS011;59810;48.800;9.086;2023-07-13T11:25:28;3.60;;;1.20;;
71937;SDS011;59810;48.800;9.086;2023-07-13T11:28:06;4.95;;;1.60;;
71937;SDS011;59810;48.800;9.086;2023-07-13T11:30:35;4.72;;;1.58;;
71937;SDS011;59810;48.800;9.086;2023-07-13T11:41:15;4.60;;;1.40;;
71937;SDS011;59810;48.800;9.086;2023-07-13T11:43:44;3.00;;;1.60;;
71937;SDS011;59810;48.800;9.086;2023-07-13T11:46:24;4.97;;;1.38;;
71937;SDS011;59810;48.800;9.086;2023-07-13T11:48:52;4.68;;;1.38;;
71937;SDS011;59810;48.800;9.086;2023-07-13T11:51:35;4.23;;;1.30;;
71937;SDS011;59810;48.800;9.086;2023-07-13T11:54:05;4.68;;;1.15;;
71937;SDS011;59810;48.800;9.086;2023-07-13T11:56:41;6.82;;;1.50;;
71937;SDS011;59810;48.800;9.086;2023-07-13T11:59:10;6.63;;;1.40;;
71937;SDS011;59810;48.800;9.086;2023-07-13T12:01:52;4.07;;;1.30;;
71937;SDS011;59810;48.800;9.086;2023-07-13T12:04:31;6.35;;;1.50;;
71937;SDS011;59810;48.800;9.086;2023-07-13T12:07:03;4.85;;;1.52;;
71937;SDS011;59810;48.800;9.086;2023-07-13T12:09:44;6.68;;;1.80;;
71937;SDS011;59810;48.800;9.086;2023-07-13T12:12:12;4.63;;;1.47;;
71937;SDS011;59810;48.800;9.086;2023-07-13T12:14:42;6.28;;;1.60;;
71937;SDS011;59810;48.800;9.086;2023-07-13T12:17:11;4.80;;;1.53;;
71937;SDS011;59810;48.800;9.086;2023-07-13T12:19:41;6.38;;;1.40;;
71937;SDS011;59810;48.800;9.086;2023-07-13T12:22:08;3.45;;;1.40;;
71937;SDS011;59810;48.800;9.086;2023-07-13T12:24:36;7.95;;;2.10;;
71937;SDS011;59810;48.800;9.086;2023-07-13T12:27:03;5.30;;;1.40;;
71937;SDS011;59810;48.800;9.086;2023-07-13T12:29:31;6.28;;;1.60;;
71937;SDS011;59810;48.800;9.086;2023-07-13T12:31:57;4.28;;;1.40;;
71937;SDS011;59810;48.800;9.086;2023-07-13T12:45:01;4.60;;;1.70;;
71937;SDS011;59810;48.800;9.086;2023-07-13T12:47:42;5.00;;;1.42;;
71937;SDS011;59810;48.800;9.086;2023-07-13T12:50:13;5.60;;;1.70;;
71937;SDS011;59810;48.800;9.086;2023-07-13T12:52:43;4.80;;;1.60;;
71937;SDS011;59810;48.800;9.086;2023-07-13T12:55:16;5.00;;;1.70;;
71937;SDS011;59810;48.800;9.086;2023-07-13T13:00:32;4.45;;;1.52;;
71937;SDS011;59810;48.800;9.086;2023-07-13T13:03:04;4.70;;;1.60;;
71937;SDS011;59810;48.800;9.086;2023-07-13T13:05:32;6.53;;;1.47;;
71937;SDS011;59810;48.800;9.086;2023-07-13T13:07:58;5.28;;;1.58;;
71937;SDS011;59810;48.800;9.086;2023-07-13T13:10:24;5.28;;;1.70;;
71937;SDS011;59810;48.800;9.086;2023-07-13T13:12:52;5.15;;;1.60;;
71937;SDS011;59810;48.800;9.086;2023-07-13T13:50:15;3.83;;;1.30;;
71937;SDS011;59810;48.800;9.086;2023-07-13T13:52:44;7.47;;;1.63;;
71937;SDS011;59810;48.800;9.086;2023-07-13T13:55:28;8.53;;;1.40;;
71937;SDS011;59810;48.800;9.086;2023-07-13T13:57:53;6.30;;;1.42;;
71937;SDS011;59810;48.800;9.086;2023-07-13T14:00:20;5.87;;;1.63;;
71937;SDS011;59810;48.800;9.086;2023-07-13T14:02:47;5.95;;;1.70;;
71937;SDS011;59810;48.800;9.086;2023-07-13T14:05:15;4.15;;;1.55;;
71937;SDS011;59810;48.800;9.086;2023-07-13T14:07:44;4.83;;;1.53;;
71937;SDS011;59810;48.800;9.086;2023-07-13T14:10:17;3.75;;;1.70;;
71937;SDS011;59810;48.800;9.086;2023-07-13T14:12:47;3.50;;;1.65;;
71937;SDS011;59810;48.800;9.086;2023-07-13T14:17:48;3.88;;;1.63;;
71937;SDS011;59810;48.800;9.086;2023-07-13T14:23:35;6.68;;;1.80;;
71937;SDS011;59810;48.800;9.086;2023-07-13T14:26:00;4.97;;;1.90;;
71937;SDS011;59810;48.800;9.086;2023-07-13T14:28:28;7.45;;;2.13;;
71937;SDS011;59810;48.800;9.086;2023-07-13T14:30:56;5.10;;;1.63;;
71937;SDS011;59810;48.800;9.086;2023-07-13T14:33:22;4.10;;;1.47;;
71937;SDS011;59810;48.800;9.086;2023-07-13T14:35:48;5.38;;;1.50;;
71937;SDS011;59810;48.800;9.086;2023-07-13T14:38:18;3.83;;;1.40;;
71937;SDS011;59810;48.800;9.086;2023-07-13T14:40:47;5.67;;;1.60;;
71937;SDS011;59810;48.800;9.086;2023-07-13T14:43:13;4.93;;;1.75;;
71937;SDS011;59810;48.800;9.086;2023-07-13T14:48:34;4.20;;;1.58;;
71937;SDS011;59810;48.800;9.086;2023-07-13T14:51:00;6.30;;;1.90;;
71937;SDS011;59810;48.800;9.086;2023-07-13T14:53:27;5.47;;;1.92;;
71937;SDS011;59810;48.800;9.086;2023-07-13T14:55:53;4.60;;;1.92;;
71937;SDS011;59810;48.800;9.086;2023-07-13T14:58:21;4.60;;;2.00;;
71937;SDS011;59810;48.800;9.086;2023-07-13T15:00:48;6.97;;;1.73;;
71937;SDS011;59810;48.800;9.086;2023-07-13T15:03:19;5.30;;;2.00;;
71937;SDS011;59810;48.800;9.086;2023-07-13T15:05:46;6.85;;;1.80;;
71937;SDS011;59810;48.800;9.086;2023-07-13T15:08:12;4.47;;;2.37;;
71937;SDS011;59810;48.800;9.086;2023-07-13T15:10:37;5.32;;;1.95;;
71937;SDS011;59810;48.800;9.086;2023-07-13T15:13:18;4.73;;;2.00;;
71937;SDS011;59810;48.800;9.086;2023-07-13T15:15:45;4.07;;;1.80;;
71937;SDS011;59810;48.800;9.086;2023-07-13T15:18:13;5.33;;;2.00;;
71937;SDS011;59810;48.800;9.086;2023-07-13T15:20:43;4.70;;;1.98;;
71937;SDS011;59810;48.800;9.086;2023-07-13T15:23:10;4.30;;;2.13;;
71937;SDS011;59810;48.800;9.086;2023-07-13T15:25:37;5.53;;;2.08;;
71937;SDS011;59810;48.800;9.086;2023-07-13T15:28:02;4.67;;;1.67;;
71937;SDS011;59810;48.800;9.086;2023-07-13T15:30:29;7.85;;;2.00;;
71937;SDS011;59810;48.800;9.086;2023-07-13T15:32:56;5.90;;;2.10;;
71937;SDS011;59810;48.800;9.086;2023-07-13T15:35:27;5.23;;;1.77;;
71937;SDS011;59810;48.800;9.086;2023-07-13T15:37:55;3.75;;;1.92;;
71937;SDS011;59810;48.800;9.086;2023-07-13T15:40:23;6.10;;;2.35;;
71937;SDS011;59810;48.800;9.086;2023-07-13T15:42:49;6.93;;;2.25;;
71937;SDS011;59810;48.800;9.086;2023-07-13T15:45:19;4.40;;;2.00;;
71937;SDS011;59810;48.800;9.086;2023-07-13T15:47:47;6.15;;;2.10;;
71937;SDS011;59810;48.800;9.086;2023-07-13T15:50:14;7.70;;;2.38;;
71937;SDS011;59810;48.800;9.086;2023-07-13T15:52:41;5.93;;;2.00;;
71937;SDS011;59810;48.800;9.086;2023-07-13T15:55:11;6.35;;;1.83;;
71937;SDS011;59810;48.800;9.086;2023-07-13T15:57:44;7.40;;;2.03;;
71937;SDS011;59810;48.800;9.086;2023-07-13T16:00:13;4.63;;;1.73;;
71937;SDS011;59810;48.800;9.086;2023-07-13T16:02:43;4.30;;;1.98;;
71937;SDS011;59810;48.800;9.086;2023-07-13T16:05:08;5.20;;;1.93;;
71937;SDS011;59810;48.800;9.086;2023-07-13T16:07:33;5.27;;;2.13;;
71937;SDS011;59810;48.800;9.086;2023-07-13T16:09:59;6.47;;;2.10;;
71937;SDS011;59810;48.800;9.086;2023-07-13T16:12:25;6.13;;;1.85;;
71937;SDS011;59810;48.800;9.086;2023-07-13T16:14:51;5.13;;;1.73;;
71937;SDS011;59810;48.800;9.086;2023-07-13T16:17:16;7.63;;;1.73;;
71937;SDS011;59810;48.800;9.086;2023-07-13T16:19:41;6.60;;;1.53;;
71937;SDS011;59810;48.800;9.086;2023-07-13T16:22:17;8.67;;;2.30;;
71937;SDS011;59810;48.800;9.086;2023-07-13T16:24:44;6.00;;;1.70;;
71937;SDS011;59810;48.800;9.086;2023-07-13T16:27:13;4.83;;;1.93;;
71937;SDS011;59810;48.800;9.086;2023-07-13T16:29:38;4.85;;;1.63;;
71937;SDS011;59810;48.800;9.086;2023-07-13T16:32:05;4.80;;;1.90;;
71937;SDS011;59810;48.800;9.086;2023-07-13T16:34:33;6.50;;;1.80;;